sensor_id;sensor_type;location;lat;lon;timestamp;P1;durP1;ratioP1;P2;durP2;ratioP2
63038;SDS011;49125;48.812;9.206;2022-08-30T00:02:30;12.52;;;7.15;;
63038;SDS011;49125;48.812;9.206;2022-08-30T00:04:55;8.45;;;7.40;;
63038;SDS011;49125;48.812;9.206;2022-08-30T00:07:25;7.72;;;6.93;;
63038;SDS011;49125;48.812;9.206;2022-08-30T00:09:51;9.10;;;7.28;;
63038;SDS011;49125;48.812;9.206;2022-08-30T00:12:17;10.38;;;7.32;;
63038;SDS011;49125;48.812;9.206;2022-08-30T00:14:44;8.55;;;7.75;;
63038;SDS011;49125;48.812;9.206;2022-08-30T00:17:10;9.32;;;8.00;;
63038;SDS011;49125;48.812;9.206;2022-08-30T00:19:36;9.15;;;8.15;;
63038;SDS011;49125;48.812;9.206;2022-08-30T00:22:02;8.38;;;7.57;;
63038;SDS011;49125;48.812;9.206;2022-08-30T00:24:28;13.75;;;7.45;;
63038;SDS011;49125;48.812;9.206;2022-08-30T00:26:53;11.60;;;8.00;;
63038;SDS011;49125;48.812;9.206;2022-08-30T00:29:19;9.40;;;8.40;;
63038;SDS011;49125;48.812;9.206;2022-08-30T00:31:45;9.02;;;7.68;;
63038;SDS011;49125;48.812;9.206;2022-08-30T00:34:10;9.85;;;7.82;;
63038;SDS011;49125;48.812;9.206;2022-08-30T00:36:36;8.85;;;7.68;;
63038;SDS011;49125;48.812;9.206;2022-08-30T00:39:02;11.80;;;7.90;;
63038;SDS011;49125;48.812;9.206;2022-08-30T00:41:29;8.57;;;7.18;;
63038;SDS011;49125;48.812;9.206;2022-08-30T00:43:55;8.98;;;7.68;;
63038;SDS011;49125;48.812;9.206;2022-08-30T00:46:21;10.52;;;8.07;;
63038;SDS011;49125;48.812;9.206;2022-08-30T00:48:46;8.63;;;7.82;;
63038;SDS011;49125;48.812;9.206;2022-08-30T00:51:15;8.77;;;7.78;;
63038;SDS011;49125;48.812;9.206;2022-08-30T00:53:44;10.02;;;7.60;;
63038;SDS011;49125;48.812;9.206;2022-08-30T00:56:13;8.30;;;7.50;;
63038;SDS011;49125;48.812;9.206;2022-08-30T00:58:43;10.40;;;7.45;;
63038;SDS011;49125;48.812;9.206;2022-08-30T01:01:10;8.13;;;6.97;;
63038;SDS011;49125;48.812;9.206;2022-08-30T01:03:37;10.05;;;7.63;;
63038;SDS011;49125;48.812;9.206;2022-08-30T01:06:03;8.20;;;7.40;;
63038;SDS011;49125;48.812;9.206;2022-08-30T01:08:29;9.18;;;7.13;;
63038;SDS011;49125;48.812;9.206;2022-08-30T01:10:55;8.82;;;7.38;;
63038;SDS011;49125;48.812;9.206;2022-08-30T01:13:22;7.43;;;6.63;;
63038;SDS011;49125;48.812;9.206;2022-08-30T01:15:49;9.25;;;7.72;;
63038;SDS011;49125;48.812;9.206;2022-08-30T01:18:15;8.63;;;7.55;;
63038;SDS011;49125;48.812;9.206;2022-08-30T01:20:50;7.00;;;6.40;;
63038;SDS011;49125;48.812;9.206;2022-08-30T01:23:27;8.70;;;7.22;;
63038;SDS011;49125;48.812;9.206;2022-08-30T01:25:56;8.52;;;7.28;;
63038;SDS011;49125;48.812;9.206;2022-08-30T01:28:24;7.45;;;6.57;;
63038;SDS011;49125;48.812;9.206;2022-08-30T01:30:51;8.45;;;7.15;;
63038;SDS011;49125;48.812;9.206;2022-08-30T01:33:17;9.77;;;7.37;;
63038;SDS011;49125;48.812;9.206;2022-08-30T01:36:00;8.13;;;7.30;;
63038;SDS011;49125;48.812;9.206;2022-08-30T01:38:37;7.57;;;6.97;;
63038;SDS011;49125;48.812;9.206;2022-08-30T01:41:21;8.77;;;6.82;;
63038;SDS011;49125;48.812;9.206;2022-08-30T01:43:56;10.00;;;7.57;;
63038;SDS011;49125;48.812;9.206;2022-08-30T01:46:24;7.88;;;7.00;;
63038;SDS011;49125;48.812;9.206;2022-08-30T01:48:55;11.00;;;7.30;;
63038;SDS011;49125;48.812;9.206;2022-08-30T01:51:23;8.85;;;7.57;;
63038;SDS011;49125;48.812;9.206;2022-08-30T01:53:50;8.23;;;7.05;;
63038;SDS011;49125;48.812;9.206;2022-08-30T01:56:16;12.73;;;8.57;;
63038;SDS011;49125;48.812;9.206;2022-08-30T01:58:42;8.68;;;7.93;;
63038;SDS011;49125;48.812;9.206;2022-08-30T02:01:09;8.27;;;7.47;;
63038;SDS011;49125;48.812;9.206;2022-08-30T02:03:37;10.15;;;7.15;;
63038;SDS011;49125;48.812;9.206;2022-08-30T02:06:04;8.70;;;7.73;;
63038;SDS011;49125;48.812;9.206;2022-08-30T02:08:32;9.37;;;8.43;;
63038;SDS011;49125;48.812;9.206;2022-08-30T02:10:58;9.07;;;7.73;;
63038;SDS011;49125;48.812;9.206;2022-08-30T02:13:25;10.50;;;7.77;;
63038;SDS011;49125;48.812;9.206;2022-08-30T02:15:54;8.80;;;7.80;;
63038;SDS011;49125;48.812;9.206;2022-08-30T02:18:20;10.30;;;8.45;;
63038;SDS011;49125;48.812;9.206;2022-08-30T02:20:47;8.67;;;7.60;;
63038;SDS011;49125;48.812;9.206;2022-08-30T02:23:13;9.00;;;8.13;;
63038;SDS011;49125;48.812;9.206;2022-08-30T02:25:39;8.90;;;8.10;;
63038;SDS011;49125;48.812;9.206;2022-08-30T02:28:05;8.50;;;7.60;;
63038;SDS011;49125;48.812;9.206;2022-08-30T02:30:31;9.93;;;7.87;;
63038;SDS011;49125;48.812;9.206;2022-08-30T02:32:57;9.13;;;7.57;;
63038;SDS011;49125;48.812;9.206;2022-08-30T02:35:22;9.55;;;8.75;;
63038;SDS011;49125;48.812;9.206;2022-08-30T02:37:48;9.57;;;7.93;;
63038;SDS011;49125;48.812;9.206;2022-08-30T02:40:14;9.75;;;8.25;;
63038;SDS011;49125;48.812;9.206;2022-08-30T02:42:39;8.85;;;7.97;;
63038;SDS011;49125;48.812;9.206;2022-08-30T02:45:06;8.73;;;7.82;;
63038;SDS011;49125;48.812;9.206;2022-08-30T02:47:32;13.07;;;8.40;;
63038;SDS011;49125;48.812;9.206;2022-08-30T02:49:58;10.13;;;8.47;;
63038;SDS011;49125;48.812;9.206;2022-08-30T02:52:24;10.93;;;7.67;;
63038;SDS011;49125;48.812;9.206;2022-08-30T02:54:52;9.40;;;8.50;;
63038;SDS011;49125;48.812;9.206;2022-08-30T02:57:20;9.07;;;8.20;;
63038;SDS011;49125;48.812;9.206;2022-08-30T02:59:49;8.43;;;7.73;;
63038;SDS011;49125;48.812;9.206;2022-08-30T03:02:14;10.07;;;8.00;;
63038;SDS011;49125;48.812;9.206;2022-08-30T03:04:40;9.67;;;8.77;;
63038;SDS011;49125;48.812;9.206;2022-08-30T03:07:08;9.63;;;8.73;;
63038;SDS011;49125;48.812;9.206;2022-08-30T03:09:37;13.30;;;8.48;;
63038;SDS011;49125;48.812;9.206;2022-08-30T03:12:03;8.77;;;7.97;;
63038;SDS011;49125;48.812;9.206;2022-08-30T03:14:33;10.63;;;8.53;;
63038;SDS011;49125;48.812;9.206;2022-08-30T03:17:04;9.87;;;8.87;;
63038;SDS011;49125;48.812;9.206;2022-08-30T03:19:33;12.33;;;8.53;;
63038;SDS011;49125;48.812;9.206;2022-08-30T03:22:00;12.20;;;8.37;;
63038;SDS011;49125;48.812;9.206;2022-08-30T03:24:27;10.50;;;8.73;;
63038;SDS011;49125;48.812;9.206;2022-08-30T03:26:53;10.87;;;8.50;;
63038;SDS011;49125;48.812;9.206;2022-08-30T03:29:19;10.20;;;8.50;;
63038;SDS011;49125;48.812;9.206;2022-08-30T03:31:44;10.40;;;9.30;;
63038;SDS011;49125;48.812;9.206;2022-08-30T03:34:10;9.87;;;8.53;;
63038;SDS011;49125;48.812;9.206;2022-08-30T03:36:36;9.10;;;8.17;;
63038;SDS011;49125;48.812;9.206;2022-08-30T03:39:03;11.13;;;9.13;;
63038;SDS011;49125;48.812;9.206;2022-08-30T03:41:29;12.43;;;9.47;;
63038;SDS011;49125;48.812;9.206;2022-08-30T03:43:56;10.30;;;9.30;;
63038;SDS011;49125;48.812;9.206;2022-08-30T03:46:22;10.30;;;9.23;;
63038;SDS011;49125;48.812;9.206;2022-08-30T03:48:47;9.93;;;8.93;;
63038;SDS011;49125;48.812;9.206;2022-08-30T03:51:13;11.30;;;9.70;;
63038;SDS011;49125;48.812;9.206;2022-08-30T03:53:39;12.57;;;9.80;;
63038;SDS011;49125;48.812;9.206;2022-08-30T03:56:04;10.93;;;9.83;;
63038;SDS011;49125;48.812;9.206;2022-08-30T03:58:30;10.67;;;9.67;;
63038;SDS011;49125;48.812;9.206;2022-08-30T04:00:55;11.57;;;9.87;;
63038;SDS011;49125;48.812;9.206;2022-08-30T04:03:21;11.47;;;10.00;;
63038;SDS011;49125;48.812;9.206;2022-08-30T04:05:53;12.67;;;11.37;;
63038;SDS011;49125;48.812;9.206;2022-08-30T04:08:19;12.43;;;11.13;;
63038;SDS011;49125;48.812;9.206;2022-08-30T04:10:45;12.13;;;10.77;;
63038;SDS011;49125;48.812;9.206;2022-08-30T04:13:12;12.63;;;11.33;;
63038;SDS011;49125;48.812;9.206;2022-08-30T04:15:38;11.77;;;10.37;;
63038;SDS011;49125;48.812;9.206;2022-08-30T04:18:04;16.47;;;11.27;;
63038;SDS011;49125;48.812;9.206;2022-08-30T04:20:30;11.97;;;10.70;;
63038;SDS011;49125;48.812;9.206;2022-08-30T04:22:56;11.20;;;10.10;;
63038;SDS011;49125;48.812;9.206;2022-08-30T04:25:21;12.37;;;11.13;;
63038;SDS011;49125;48.812;9.206;2022-08-30T04:27:47;10.97;;;9.97;;
63038;SDS011;49125;48.812;9.206;2022-08-30T04:30:13;12.37;;;11.07;;
63038;SDS011;49125;48.812;9.206;2022-08-30T04:32:40;12.77;;;11.00;;
63038;SDS011;49125;48.812;9.206;2022-08-30T04:35:06;12.77;;;11.27;;
63038;SDS011;49125;48.812;9.206;2022-08-30T04:37:32;14.83;;;12.27;;
63038;SDS011;49125;48.812;9.206;2022-08-30T04:39:57;12.87;;;11.53;;
63038;SDS011;49125;48.812;9.206;2022-08-30T04:42:27;13.17;;;11.57;;
63038;SDS011;49125;48.812;9.206;2022-08-30T04:44:56;13.47;;;12.00;;
63038;SDS011;49125;48.812;9.206;2022-08-30T04:47:22;13.13;;;11.83;;
63038;SDS011;49125;48.812;9.206;2022-08-30T04:49:47;12.60;;;11.30;;
63038;SDS011;49125;48.812;9.206;2022-08-30T04:52:13;16.63;;;12.20;;
63038;SDS011;49125;48.812;9.206;2022-08-30T04:54:39;19.00;;;11.50;;
63038;SDS011;49125;48.812;9.206;2022-08-30T04:57:05;13.73;;;12.33;;
63038;SDS011;49125;48.812;9.206;2022-08-30T04:59:30;12.37;;;11.17;;
63038;SDS011;49125;48.812;9.206;2022-08-30T05:01:57;12.70;;;11.50;;
63038;SDS011;49125;48.812;9.206;2022-08-30T05:04:26;13.63;;;10.80;;
63038;SDS011;49125;48.812;9.206;2022-08-30T05:06:51;11.47;;;10.27;;
63038;SDS011;49125;48.812;9.206;2022-08-30T05:09:17;12.27;;;10.17;;
63038;SDS011;49125;48.812;9.206;2022-08-30T05:11:43;12.23;;;10.50;;
63038;SDS011;49125;48.812;9.206;2022-08-30T05:14:09;12.97;;;10.07;;
63038;SDS011;49125;48.812;9.206;2022-08-30T05:16:35;12.67;;;11.00;;
63038;SDS011;49125;48.812;9.206;2022-08-30T05:19:01;12.32;;;10.25;;
63038;SDS011;49125;48.812;9.206;2022-08-30T05:21:27;11.48;;;10.30;;
63038;SDS011;49125;48.812;9.206;2022-08-30T05:23:57;13.17;;;10.40;;
63038;SDS011;49125;48.812;9.206;2022-08-30T05:26:28;12.02;;;10.35;;
63038;SDS011;49125;48.812;9.206;2022-08-30T05:28:55;11.60;;;10.50;;
63038;SDS011;49125;48.812;9.206;2022-08-30T05:31:31;11.90;;;9.50;;
63038;SDS011;49125;48.812;9.206;2022-08-30T05:33:58;14.85;;;11.60;;
63038;SDS011;49125;48.812;9.206;2022-08-30T05:36:25;11.95;;;10.70;;
63038;SDS011;49125;48.812;9.206;2022-08-30T05:38:53;14.98;;;11.90;;
63038;SDS011;49125;48.812;9.206;2022-08-30T05:41:19;13.27;;;11.90;;
63038;SDS011;49125;48.812;9.206;2022-08-30T05:43:46;12.35;;;11.13;;
63038;SDS011;49125;48.812;9.206;2022-08-30T05:46:13;13.65;;;12.30;;
63038;SDS011;49125;48.812;9.206;2022-08-30T05:48:43;16.60;;;12.98;;
63038;SDS011;49125;48.812;9.206;2022-08-30T05:51:10;14.77;;;13.32;;
63038;SDS011;49125;48.812;9.206;2022-08-30T05:53:38;15.23;;;12.77;;
63038;SDS011;49125;48.812;9.206;2022-08-30T05:56:06;17.80;;;12.80;;
63038;SDS011;49125;48.812;9.206;2022-08-30T05:58:37;20.58;;;13.20;;
63038;SDS011;49125;48.812;9.206;2022-08-30T06:01:03;15.32;;;13.38;;
63038;SDS011;49125;48.812;9.206;2022-08-30T06:03:29;18.95;;;13.48;;
63038;SDS011;49125;48.812;9.206;2022-08-30T06:05:57;20.60;;;12.90;;
63038;SDS011;49125;48.812;9.206;2022-08-30T06:08:23;17.73;;;12.65;;
63038;SDS011;49125;48.812;9.206;2022-08-30T06:10:49;22.73;;;14.23;;
63038;SDS011;49125;48.812;9.206;2022-08-30T06:13:15;17.02;;;13.55;;
63038;SDS011;49125;48.812;9.206;2022-08-30T06:15:41;18.55;;;13.35;;
63038;SDS011;49125;48.812;9.206;2022-08-30T06:18:11;17.42;;;14.77;;
63038;SDS011;49125;48.812;9.206;2022-08-30T06:20:41;17.00;;;12.90;;
63038;SDS011;49125;48.812;9.206;2022-08-30T06:23:08;19.13;;;14.23;;
63038;SDS011;49125;48.812;9.206;2022-08-30T06:25:35;19.15;;;14.18;;
63038;SDS011;49125;48.812;9.206;2022-08-30T06:28:02;15.93;;;13.07;;
63038;SDS011;49125;48.812;9.206;2022-08-30T06:30:28;14.45;;;12.52;;
63038;SDS011;49125;48.812;9.206;2022-08-30T06:32:54;12.88;;;11.07;;
63038;SDS011;49125;48.812;9.206;2022-08-30T06:35:19;14.90;;;11.50;;
63038;SDS011;49125;48.812;9.206;2022-08-30T06:37:45;16.20;;;11.70;;
63038;SDS011;49125;48.812;9.206;2022-08-30T06:40:11;14.55;;;11.35;;
63038;SDS011;49125;48.812;9.206;2022-08-30T06:42:37;14.90;;;12.35;;
63038;SDS011;49125;48.812;9.206;2022-08-30T06:45:03;15.32;;;12.45;;
63038;SDS011;49125;48.812;9.206;2022-08-30T06:47:29;17.90;;;12.43;;
63038;SDS011;49125;48.812;9.206;2022-08-30T06:49:55;13.52;;;12.05;;
63038;SDS011;49125;48.812;9.206;2022-08-30T06:52:21;17.20;;;12.60;;
63038;SDS011;49125;48.812;9.206;2022-08-30T06:54:47;15.23;;;13.63;;
63038;SDS011;49125;48.812;9.206;2022-08-30T06:57:13;15.50;;;13.13;;
63038;SDS011;49125;48.812;9.206;2022-08-30T06:59:39;13.70;;;12.27;;
63038;SDS011;49125;48.812;9.206;2022-08-30T07:02:04;20.02;;;13.27;;
63038;SDS011;49125;48.812;9.206;2022-08-30T07:04:31;18.27;;;12.60;;
63038;SDS011;49125;48.812;9.206;2022-08-30T07:06:57;17.25;;;12.27;;
63038;SDS011;49125;48.812;9.206;2022-08-30T07:09:23;15.90;;;11.57;;
63038;SDS011;49125;48.812;9.206;2022-08-30T07:11:49;11.93;;;10.27;;
63038;SDS011;49125;48.812;9.206;2022-08-30T07:14:15;11.65;;;10.45;;
63038;SDS011;49125;48.812;9.206;2022-08-30T07:16:42;13.70;;;9.82;;
63038;SDS011;49125;48.812;9.206;2022-08-30T07:19:08;10.93;;;9.48;;
63038;SDS011;49125;48.812;9.206;2022-08-30T07:21:37;13.45;;;9.85;;
63038;SDS011;49125;48.812;9.206;2022-08-30T07:24:07;11.63;;;8.98;;
63038;SDS011;49125;48.812;9.206;2022-08-30T07:26:37;10.80;;;8.45;;
63038;SDS011;49125;48.812;9.206;2022-08-30T07:29:05;9.05;;;8.10;;
63038;SDS011;49125;48.812;9.206;2022-08-30T07:31:32;11.68;;;8.88;;
63038;SDS011;49125;48.812;9.206;2022-08-30T07:34:00;10.95;;;8.02;;
63038;SDS011;49125;48.812;9.206;2022-08-30T07:36:26;14.98;;;8.43;;
63038;SDS011;49125;48.812;9.206;2022-08-30T07:38:52;9.35;;;7.65;;
63038;SDS011;49125;48.812;9.206;2022-08-30T07:41:25;8.88;;;7.40;;
63038;SDS011;49125;48.812;9.206;2022-08-30T07:43:52;9.32;;;8.38;;
63038;SDS011;49125;48.812;9.206;2022-08-30T07:46:19;10.73;;;8.25;;
63038;SDS011;49125;48.812;9.206;2022-08-30T07:48:45;9.95;;;7.88;;
63038;SDS011;49125;48.812;9.206;2022-08-30T07:51:12;8.15;;;7.35;;
63038;SDS011;49125;48.812;9.206;2022-08-30T07:53:40;8.02;;;7.25;;
63038;SDS011;49125;48.812;9.206;2022-08-30T07:56:05;9.88;;;8.07;;
63038;SDS011;49125;48.812;9.206;2022-08-30T07:58:32;10.27;;;7.47;;
63038;SDS011;49125;48.812;9.206;2022-08-30T08:00:58;8.68;;;7.80;;
63038;SDS011;49125;48.812;9.206;2022-08-30T08:03:25;11.65;;;7.95;;
63038;SDS011;49125;48.812;9.206;2022-08-30T08:05:52;10.57;;;7.78;;
63038;SDS011;49125;48.812;9.206;2022-08-30T08:08:18;11.05;;;7.97;;
63038;SDS011;49125;48.812;9.206;2022-08-30T08:10:44;10.30;;;8.30;;
63038;SDS011;49125;48.812;9.206;2022-08-30T08:13:10;12.68;;;7.40;;
63038;SDS011;49125;48.812;9.206;2022-08-30T08:15:36;11.38;;;7.70;;
63038;SDS011;49125;48.812;9.206;2022-08-30T08:18:02;11.35;;;7.30;;
63038;SDS011;49125;48.812;9.206;2022-08-30T08:20:28;12.48;;;7.15;;
63038;SDS011;49125;48.812;9.206;2022-08-30T08:22:57;8.82;;;6.97;;
63038;SDS011;49125;48.812;9.206;2022-08-30T08:25:23;6.88;;;6.18;;
63038;SDS011;49125;48.812;9.206;2022-08-30T08:27:49;8.15;;;6.03;;
63038;SDS011;49125;48.812;9.206;2022-08-30T08:30:18;7.63;;;5.75;;
63038;SDS011;49125;48.812;9.206;2022-08-30T08:32:46;7.10;;;6.38;;
63038;SDS011;49125;48.812;9.206;2022-08-30T08:35:13;8.30;;;6.35;;
63038;SDS011;49125;48.812;9.206;2022-08-30T08:37:40;6.45;;;5.55;;
63038;SDS011;49125;48.812;9.206;2022-08-30T08:40:06;7.03;;;5.85;;
63038;SDS011;49125;48.812;9.206;2022-08-30T08:45:52;7.07;;;6.25;;
63038;SDS011;49125;48.812;9.206;2022-08-30T08:51:17;9.70;;;5.50;;
63038;SDS011;49125;48.812;9.206;2022-08-30T08:56:34;8.02;;;5.72;;
63038;SDS011;49125;48.812;9.206;2022-08-30T08:59:01;7.55;;;5.53;;
63038;SDS011;49125;48.812;9.206;2022-08-30T09:01:34;6.43;;;5.80;;
63038;SDS011;49125;48.812;9.206;2022-08-30T09:04:04;6.15;;;5.18;;
63038;SDS011;49125;48.812;9.206;2022-08-30T09:06:48;5.63;;;5.05;;
63038;SDS011;49125;48.812;9.206;2022-08-30T09:09:21;7.85;;;5.57;;
63038;SDS011;49125;48.812;9.206;2022-08-30T09:11:51;6.75;;;5.20;;
63038;SDS011;49125;48.812;9.206;2022-08-30T09:14:19;7.95;;;5.55;;
63038;SDS011;49125;48.812;9.206;2022-08-30T09:19:33;6.35;;;5.85;;
63038;SDS011;49125;48.812;9.206;2022-08-30T09:22:03;6.32;;;5.72;;
63038;SDS011;49125;48.812;9.206;2022-08-30T09:24:36;7.78;;;5.13;;
63038;SDS011;49125;48.812;9.206;2022-08-30T09:32:50;5.68;;;5.13;;
63038;SDS011;49125;48.812;9.206;2022-08-30T09:35:19;6.55;;;5.68;;
63038;SDS011;49125;48.812;9.206;2022-08-30T09:37:52;5.70;;;5.20;;
63038;SDS011;49125;48.812;9.206;2022-08-30T09:40:34;5.88;;;5.38;;
63038;SDS011;49125;48.812;9.206;2022-08-30T09:43:09;5.60;;;5.10;;
63038;SDS011;49125;48.812;9.206;2022-08-30T09:45:42;5.47;;;5.05;;
63038;SDS011;49125;48.812;9.206;2022-08-30T09:48:32;7.07;;;5.13;;
63038;SDS011;49125;48.812;9.206;2022-08-30T09:51:33;6.22;;;5.03;;
63038;SDS011;49125;48.812;9.206;2022-08-30T09:54:18;8.30;;;5.55;;
63038;SDS011;49125;48.812;9.206;2022-08-30T10:04:34;5.68;;;5.18;;
63038;SDS011;49125;48.812;9.206;2022-08-30T10:12:39;5.25;;;4.80;;
63038;SDS011;49125;48.812;9.206;2022-08-30T10:20:59;6.00;;;5.40;;
63038;SDS011;49125;48.812;9.206;2022-08-30T10:23:36;5.38;;;4.90;;
63038;SDS011;49125;48.812;9.206;2022-08-30T10:28:54;7.25;;;4.72;;
63038;SDS011;49125;48.812;9.206;2022-08-30T10:34:33;5.55;;;5.15;;
63038;SDS011;49125;48.812;9.206;2022-08-30T10:37:07;6.22;;;4.70;;
63038;SDS011;49125;48.812;9.206;2022-08-30T10:39:50;6.57;;;4.72;;
63038;SDS011;49125;48.812;9.206;2022-08-30T10:42:22;6.68;;;4.60;;
63038;SDS011;49125;48.812;9.206;2022-08-30T10:44:52;4.65;;;4.18;;
63038;SDS011;49125;48.812;9.206;2022-08-30T10:47:27;4.88;;;4.53;;
63038;SDS011;49125;48.812;9.206;2022-08-30T10:50:12;5.28;;;4.47;;
63038;SDS011;49125;48.812;9.206;2022-08-30T10:52:50;8.90;;;4.40;;
63038;SDS011;49125;48.812;9.206;2022-08-30T10:57:59;5.38;;;4.88;;
63038;SDS011;49125;48.812;9.206;2022-08-30T11:06:11;5.30;;;4.90;;
63038;SDS011;49125;48.812;9.206;2022-08-30T11:14:29;4.70;;;4.30;;
63038;SDS011;49125;48.812;9.206;2022-08-30T11:16:55;6.10;;;4.60;;
63038;SDS011;49125;48.812;9.206;2022-08-30T11:19:25;4.75;;;4.35;;
63038;SDS011;49125;48.812;9.206;2022-08-30T11:22:07;4.35;;;4.05;;
63038;SDS011;49125;48.812;9.206;2022-08-30T11:27:39;5.45;;;4.97;;
63038;SDS011;49125;48.812;9.206;2022-08-30T11:32:59;4.88;;;4.47;;
63038;SDS011;49125;48.812;9.206;2022-08-30T11:35:34;5.00;;;4.47;;
63038;SDS011;49125;48.812;9.206;2022-08-30T11:37:59;5.70;;;4.38;;
63038;SDS011;49125;48.812;9.206;2022-08-30T11:42:52;5.45;;;4.95;;
63038;SDS011;49125;48.812;9.206;2022-08-30T11:50:25;4.78;;;4.40;;
63038;SDS011;49125;48.812;9.206;2022-08-30T11:53:32;5.38;;;4.88;;
63038;SDS011;49125;48.812;9.206;2022-08-30T11:56:27;6.18;;;4.80;;
63038;SDS011;49125;48.812;9.206;2022-08-30T11:59:05;5.35;;;4.82;;
63038;SDS011;49125;48.812;9.206;2022-08-30T12:01:42;5.55;;;4.97;;
63038;SDS011;49125;48.812;9.206;2022-08-30T12:04:13;5.50;;;5.10;;
63038;SDS011;49125;48.812;9.206;2022-08-30T12:17:14;6.72;;;4.90;;
63038;SDS011;49125;48.812;9.206;2022-08-30T12:20:27;5.30;;;4.78;;
63038;SDS011;49125;48.812;9.206;2022-08-30T12:23:18;5.53;;;5.07;;
63038;SDS011;49125;48.812;9.206;2022-08-30T12:26:08;5.55;;;5.05;;
63038;SDS011;49125;48.812;9.206;2022-08-30T12:28:37;5.40;;;4.90;;
63038;SDS011;49125;48.812;9.206;2022-08-30T12:31:12;5.18;;;4.70;;
63038;SDS011;49125;48.812;9.206;2022-08-30T12:33:48;5.25;;;4.85;;
63038;SDS011;49125;48.812;9.206;2022-08-30T12:36:34;6.28;;;4.88;;
63038;SDS011;49125;48.812;9.206;2022-08-30T12:39:14;6.07;;;4.95;;
63038;SDS011;49125;48.812;9.206;2022-08-30T12:41:42;5.00;;;4.60;;
63038;SDS011;49125;48.812;9.206;2022-08-30T12:44:11;6.40;;;4.65;;
63038;SDS011;49125;48.812;9.206;2022-08-30T12:46:41;5.43;;;4.97;;
63038;SDS011;49125;48.812;9.206;2022-08-30T12:49:09;4.75;;;4.40;;
63038;SDS011;49125;48.812;9.206;2022-08-30T12:51:39;5.18;;;4.68;;
63038;SDS011;49125;48.812;9.206;2022-08-30T12:54:40;6.55;;;4.75;;
63038;SDS011;49125;48.812;9.206;2022-08-30T12:57:03;5.30;;;4.82;;
63038;SDS011;49125;48.812;9.206;2022-08-30T13:04:42;5.38;;;4.88;;
63038;SDS011;49125;48.812;9.206;2022-08-30T13:07:21;5.28;;;4.68;;
63038;SDS011;49125;48.812;9.206;2022-08-30T13:09:49;5.15;;;4.72;;
63038;SDS011;49125;48.812;9.206;2022-08-30T13:12:24;4.93;;;4.53;;
63038;SDS011;49125;48.812;9.206;2022-08-30T13:14:51;5.07;;;4.68;;
63038;SDS011;49125;48.812;9.206;2022-08-30T13:19:43;7.97;;;4.95;;
63038;SDS011;49125;48.812;9.206;2022-08-30T13:24:59;5.88;;;4.80;;
63038;SDS011;49125;48.812;9.206;2022-08-30T13:27:26;4.70;;;4.40;;
63038;SDS011;49125;48.812;9.206;2022-08-30T13:29:53;4.57;;;4.25;;
63038;SDS011;49125;48.812;9.206;2022-08-30T13:32:19;4.93;;;4.43;;
63038;SDS011;49125;48.812;9.206;2022-08-30T13:34:45;6.30;;;4.57;;
63038;SDS011;49125;48.812;9.206;2022-08-30T13:37:21;5.32;;;4.90;;
63038;SDS011;49125;48.812;9.206;2022-08-30T13:39:48;5.57;;;5.15;;
63038;SDS011;49125;48.812;9.206;2022-08-30T13:42:14;4.68;;;4.38;;
63038;SDS011;49125;48.812;9.206;2022-08-30T13:44:40;5.03;;;4.63;;
63038;SDS011;49125;48.812;9.206;2022-08-30T13:47:06;5.05;;;4.65;;
63038;SDS011;49125;48.812;9.206;2022-08-30T13:49:33;5.97;;;4.63;;
63038;SDS011;49125;48.812;9.206;2022-08-30T13:52:03;4.97;;;4.57;;
63038;SDS011;49125;48.812;9.206;2022-08-30T13:54:30;5.40;;;5.00;;
63038;SDS011;49125;48.812;9.206;2022-08-30T13:56:56;5.43;;;5.03;;
63038;SDS011;49125;48.812;9.206;2022-08-30T13:59:22;4.90;;;4.50;;
63038;SDS011;49125;48.812;9.206;2022-08-30T14:01:48;4.75;;;4.35;;
63038;SDS011;49125;48.812;9.206;2022-08-30T14:04:16;5.38;;;4.97;;
63038;SDS011;49125;48.812;9.206;2022-08-30T14:06:42;4.93;;;4.53;;
63038;SDS011;49125;48.812;9.206;2022-08-30T14:09:08;6.35;;;4.60;;
63038;SDS011;49125;48.812;9.206;2022-08-30T14:11:34;5.85;;;5.20;;
63038;SDS011;49125;48.812;9.206;2022-08-30T14:14:00;6.38;;;4.70;;
63038;SDS011;49125;48.812;9.206;2022-08-30T14:16:26;4.95;;;4.55;;
63038;SDS011;49125;48.812;9.206;2022-08-30T14:18:53;4.63;;;4.32;;
63038;SDS011;49125;48.812;9.206;2022-08-30T14:21:19;5.22;;;4.82;;
63038;SDS011;49125;48.812;9.206;2022-08-30T14:23:45;4.75;;;4.45;;
63038;SDS011;49125;48.812;9.206;2022-08-30T14:26:20;5.70;;;5.20;;
63038;SDS011;49125;48.812;9.206;2022-08-30T14:28:53;4.88;;;4.47;;
63038;SDS011;49125;48.812;9.206;2022-08-30T14:31:19;5.30;;;4.80;;
63038;SDS011;49125;48.812;9.206;2022-08-30T14:33:45;4.90;;;4.50;;
63038;SDS011;49125;48.812;9.206;2022-08-30T14:36:10;6.82;;;4.45;;
63038;SDS011;49125;48.812;9.206;2022-08-30T14:38:38;5.55;;;5.05;;
63038;SDS011;49125;48.812;9.206;2022-08-30T14:41:05;4.78;;;4.47;;
63038;SDS011;49125;48.812;9.206;2022-08-30T14:43:31;5.38;;;4.88;;
63038;SDS011;49125;48.812;9.206;2022-08-30T14:45:58;6.30;;;5.20;;
63038;SDS011;49125;48.812;9.206;2022-08-30T14:48:24;5.97;;;5.38;;
63038;SDS011;49125;48.812;9.206;2022-08-30T14:50:50;5.60;;;4.95;;
63038;SDS011;49125;48.812;9.206;2022-08-30T14:53:15;5.25;;;4.78;;
63038;SDS011;49125;48.812;9.206;2022-08-30T14:55:41;5.53;;;4.78;;
63038;SDS011;49125;48.812;9.206;2022-08-30T14:58:06;6.05;;;4.72;;
63038;SDS011;49125;48.812;9.206;2022-08-30T15:00:34;5.47;;;4.90;;
63038;SDS011;49125;48.812;9.206;2022-08-30T15:03:00;5.72;;;5.22;;
63038;SDS011;49125;48.812;9.206;2022-08-30T15:05:26;8.13;;;5.22;;
63038;SDS011;49125;48.812;9.206;2022-08-30T15:07:51;8.75;;;5.50;;
63038;SDS011;49125;48.812;9.206;2022-08-30T15:10:17;5.57;;;4.90;;
63038;SDS011;49125;48.812;9.206;2022-08-30T15:12:48;5.53;;;4.93;;
63038;SDS011;49125;48.812;9.206;2022-08-30T15:15:15;6.35;;;4.75;;
63038;SDS011;49125;48.812;9.206;2022-08-30T15:17:43;6.90;;;4.90;;
63038;SDS011;49125;48.812;9.206;2022-08-30T15:20:09;5.60;;;5.10;;
63038;SDS011;49125;48.812;9.206;2022-08-30T15:22:35;5.43;;;4.75;;
63038;SDS011;49125;48.812;9.206;2022-08-30T15:25:01;5.20;;;4.70;;
63038;SDS011;49125;48.812;9.206;2022-08-30T15:27:30;5.57;;;4.97;;
63038;SDS011;49125;48.812;9.206;2022-08-30T15:29:55;5.68;;;5.07;;
63038;SDS011;49125;48.812;9.206;2022-08-30T15:32:21;5.38;;;4.93;;
63038;SDS011;49125;48.812;9.206;2022-08-30T15:34:47;6.35;;;4.82;;
63038;SDS011;49125;48.812;9.206;2022-08-30T15:37:12;5.50;;;5.05;;
63038;SDS011;49125;48.812;9.206;2022-08-30T15:39:46;5.18;;;4.72;;
63038;SDS011;49125;48.812;9.206;2022-08-30T15:42:15;6.70;;;5.30;;
63038;SDS011;49125;48.812;9.206;2022-08-30T15:44:43;5.30;;;4.90;;
63038;SDS011;49125;48.812;9.206;2022-08-30T15:47:09;5.60;;;5.10;;
63038;SDS011;49125;48.812;9.206;2022-08-30T15:49:35;5.47;;;4.95;;
63038;SDS011;49125;48.812;9.206;2022-08-30T15:52:01;6.13;;;5.22;;
63038;SDS011;49125;48.812;9.206;2022-08-30T15:54:29;6.68;;;4.93;;
63038;SDS011;49125;48.812;9.206;2022-08-30T15:56:55;5.80;;;4.97;;
63038;SDS011;49125;48.812;9.206;2022-08-30T15:59:27;9.32;;;4.63;;
63038;SDS011;49125;48.812;9.206;2022-08-30T16:01:54;5.35;;;4.88;;
63038;SDS011;49125;48.812;9.206;2022-08-30T16:04:20;6.60;;;5.13;;
63038;SDS011;49125;48.812;9.206;2022-08-30T16:06:46;5.88;;;5.20;;
63038;SDS011;49125;48.812;9.206;2022-08-30T16:09:13;5.85;;;5.07;;
63038;SDS011;49125;48.812;9.206;2022-08-30T16:11:39;6.53;;;5.18;;
63038;SDS011;49125;48.812;9.206;2022-08-30T16:14:07;5.53;;;4.75;;
63038;SDS011;49125;48.812;9.206;2022-08-30T16:16:33;5.78;;;4.93;;
63038;SDS011;49125;48.812;9.206;2022-08-30T16:19:01;5.47;;;4.85;;
63038;SDS011;49125;48.812;9.206;2022-08-30T16:21:28;6.90;;;5.10;;